Time;durP1;ratioP1;P1;durP2;ratioP2;P2;SDS_P1;SDS_P2;PMS_P1;PMS_P2;Temp;Humidity;BMP_temperature;BMP_pressure;BME280_temperature;BME280_humidity;BME280_pressure;Samples;Min_cycle;Max_cycle;Signal;HPM_P1;HPM_P2
2023/09/23 00:01:05;;;;;;;5.50;3.15;;;23.30;94.10;;;;;;6124733;23;20006;-77
2023/09/23 00:03:33;;;;;;;7.80;2.88;;;23.30;94.20;;;;;;6125877;23;20002;-78
2023/09/23 00:06:02;;;;;;;7.25;3.38;;;23.30;94.30;;;;;;6098326;23;20022;-78
2023/09/23 00:08:28;;;;;;;6.30;2.95;;;23.20;94.40;;;;;;6098229;23;20002;-78
2023/09/23 00:10:53;;;;;;;6.63;3.90;;;23.20;94.50;;;;;;6124346;23;20002;-77
2023/09/23 00:13:21;;;;;;;7.85;3.28;;;23.20;94.60;;;;;;6124779;23;20002;-77
2023/09/23 00:15:48;;;;;;;8.00;4.13;;;23.20;94.70;;;;;;6125137;23;20002;-77
2023/09/23 00:18:17;;;;;;;8.90;3.78;;;23.20;94.80;;;;;;6097388;23;20006;-77
2023/09/23 00:20:46;;;;;;;7.22;4.10;;;23.10;94.80;;;;;;6124175;23;20002;-77
2023/09/23 00:23:13;;;;;;;11.53;4.67;;;23.20;94.90;;;;;;6123830;23;20081;-76
2023/09/23 00:25:39;;;;;;;12.00;4.15;;;23.10;95.00;;;;;;6124514;23;20120;-77
2023/09/23 00:28:11;;;;;;;8.43;4.68;;;23.10;95.00;;;;;;6123516;23;20030;-76
2023/09/23 00:30:37;;;;;;;8.48;4.75;;;23.10;95.10;;;;;;6124938;23;20009;-76
2023/09/23 00:33:03;;;;;;;5.82;3.38;;;23.10;95.20;;;;;;6097781;23;20006;-76
2023/09/23 00:35:29;;;;;;;5.32;3.63;;;23.00;95.30;;;;;;6126283;23;20420;-77
2023/09/23 00:37:55;;;;;;;11.68;4.20;;;23.00;95.30;;;;;;6100425;23;20033;-77
2023/09/23 00:40:27;;;;;;;7.75;4.30;;;22.90;95.30;;;;;;6101071;23;20006;-77
2023/09/23 00:42:55;;;;;;;12.38;4.82;;;22.90;95.40;;;;;;6126887;23;20013;-77
2023/09/23 00:45:22;;;;;;;8.93;4.50;;;22.90;95.40;;;;;;6100085;23;20085;-76
2023/09/23 00:47:48;;;;;;;7.47;3.97;;;22.90;95.50;;;;;;6100231;23;20375;-77
2023/09/23 00:50:22;;;;;;;6.40;4.10;;;22.90;95.40;;;;;;6126128;23;20009;-77
2023/09/23 00:52:51;;;;;;;5.80;4.25;;;22.90;95.50;;;;;;6126715;23;20313;-77
2023/09/23 00:55:24;;;;;;;9.43;4.78;;;22.80;95.50;;;;;;6127191;23;20009;-77
2023/09/23 00:57:53;;;;;;;7.13;4.82;;;22.90;95.50;;;;;;6126423;23;20006;-77
2023/09/23 01:00:31;;;;;;;10.35;4.60;;;22.90;95.60;;;;;;6126226;23;20006;-77
2023/09/23 01:02:59;;;;;;;13.80;5.30;;;22.90;95.60;;;;;;6099916;23;20097;-77
2023/09/23 01:05:29;;;;;;;9.70;5.07;;;22.90;95.60;;;;;;6126816;23;20017;-77
2023/09/23 01:07:59;;;;;;;9.35;5.18;;;22.90;95.60;;;;;;6100114;23;20073;-78
2023/09/23 01:10:25;;;;;;;8.05;4.80;;;23.00;95.60;;;;;;6126474;23;20040;-78
2023/09/23 01:12:51;;;;;;;8.43;5.00;;;23.00;95.60;;;;;;6124962;23;20002;-78
2023/09/23 01:15:18;;;;;;;12.88;5.15;;;23.00;95.60;;;;;;6126228;23;20344;-76
2023/09/23 01:17:46;;;;;;;9.05;5.20;;;22.90;95.70;;;;;;6124636;23;20045;-76
2023/09/23 01:20:13;;;;;;;8.07;5.13;;;22.90;95.80;;;;;;6126542;23;20421;-75
2023/09/23 01:22:39;;;;;;;10.32;5.10;;;22.80;95.80;;;;;;6100083;23;20002;-75
2023/09/23 01:25:06;;;;;;;9.20;5.57;;;22.80;96.00;;;;;;6126048;23;20005;-76
2023/09/23 01:27:34;;;;;;;8.13;5.38;;;22.80;96.10;;;;;;6099988;23;20014;-76
2023/09/23 01:30:04;;;;;;;11.23;5.68;;;22.80;96.10;;;;;;6125984;23;20005;-77
2023/09/23 01:32:41;;;;;;;9.35;5.20;;;22.70;96.20;;;;;;6125757;23;19998;-76
2023/09/23 01:35:09;;;;;;;8.07;5.22;;;22.70;96.20;;;;;;6099281;23;20006;-76
2023/09/23 01:37:35;;;;;;;8.65;5.75;;;22.70;96.30;;;;;;6126287;23;20048;-76
2023/09/23 01:40:02;;;;;;;9.95;5.50;;;22.60;96.40;;;;;;6100115;23;20096;-79
2023/09/23 01:42:30;;;;;;;8.68;5.78;;;22.60;96.50;;;;;;6100155;23;20006;-79
2023/09/23 01:44:57;;;;;;;6.45;4.80;;;22.60;96.60;;;;;;6125828;23;20089;-79
2023/09/23 01:47:23;;;;;;;10.55;5.40;;;22.60;96.60;;;;;;6125629;23;20014;-79
2023/09/23 01:49:49;;;;;;;9.25;6.03;;;22.50;96.70;;;;;;6126305;23;20002;-79
2023/09/23 01:52:17;;;;;;;8.35;5.20;;;22.40;96.80;;;;;;6126562;23;20005;-79
2023/09/23 01:54:48;;;;;;;8.73;5.90;;;22.50;96.80;;;;;;6126398;23;20451;-78
2023/09/23 01:57:16;;;;;;;7.18;5.25;;;22.40;96.80;;;;;;6124401;23;20014;-78
2023/09/23 01:59:43;;;;;;;8.35;5.68;;;22.40;96.90;;;;;;6126073;23;20006;-78
2023/09/23 02:02:09;;;;;;;6.47;5.00;;;22.40;96.90;;;;;;6124566;23;20040;-78
2023/09/23 02:04:39;;;;;;;6.60;4.88;;;22.30;97.00;;;;;;6126061;23;20042;-78
2023/09/23 02:07:06;;;;;;;10.48;5.03;;;22.30;97.10;;;;;;6124781;23;20018;-78
2023/09/23 02:09:34;;;;;;;6.75;5.45;;;22.20;97.10;;;;;;6125740;23;20005;-78
2023/09/23 02:12:00;;;;;;;6.93;5.85;;;22.20;97.10;;;;;;6125301;23;20037;-77
2023/09/23 02:14:26;;;;;;;9.63;6.28;;;22.20;97.20;;;;;;6125904;23;20005;-76
2023/09/23 02:16:52;;;;;;;9.15;5.40;;;22.30;97.20;;;;;;6125760;23;20040;-76
2023/09/23 02:19:18;;;;;;;8.13;6.03;;;22.30;97.30;;;;;;6100043;23;20341;-76
2023/09/23 02:21:44;;;;;;;8.75;6.18;;;22.30;97.20;;;;;;6124787;23;20468;-76
2023/09/23 02:24:10;;;;;;;10.88;6.30;;;22.30;97.20;;;;;;6125816;23;20012;-76
2023/09/23 02:26:35;;;;;;;9.85;6.68;;;22.30;97.20;;;;;;6098355;23;20037;-76
2023/09/23 02:29:02;;;;;;;12.57;6.32;;;22.40;97.20;;;;;;6125312;23;20002;-76
2023/09/23 02:31:28;;;;;;;8.60;6.15;;;22.40;97.40;;;;;;6125414;23;20009;-76
2023/09/23 02:33:53;;;;;;;12.05;6.60;;;22.40;97.10;;;;;;6124913;23;20076;-76
2023/09/23 02:36:19;;;;;;;11.25;6.05;;;22.40;97.10;;;;;;6124611;23;20010;-76
2023/09/23 02:38:45;;;;;;;9.82;6.32;;;22.40;97.10;;;;;;6125235;23;20077;-76
2023/09/23 02:41:10;;;;;;;12.88;7.22;;;22.40;97.10;;;;;;6125449;23;20002;-77
2023/09/23 02:43:37;;;;;;;12.85;6.68;;;22.40;97.10;;;;;;6098278;23;20013;-77
2023/09/23 02:46:03;;;;;;;9.02;6.10;;;22.40;97.10;;;;;;6124362;23;20416;-77
2023/09/23 02:48:29;;;;;;;8.77;6.03;;;22.40;97.10;;;;;;6125225;23;19998;-74
2023/09/23 02:50:58;;;;;;;12.82;7.18;;;22.40;97.10;;;;;;6125197;23;20104;-74
2023/09/23 02:53:24;;;;;;;8.32;6.28;;;22.40;97.10;;;;;;6124784;23;20425;-75
2023/09/23 02:56:03;;;;;;;11.32;6.18;;;22.40;97.10;;;;;;6124650;23;20061;-74
2023/09/23 02:58:29;;;;;;;9.25;5.95;;;22.40;97.10;;;;;;6125411;23;20026;-74
2023/09/23 03:00:58;;;;;;;10.57;6.60;;;22.40;97.10;;;;;;6124853;23;20084;-76
2023/09/23 03:03:24;;;;;;;11.95;6.80;;;22.40;97.40;;;;;;6124686;23;20006;-76
2023/09/23 03:05:55;;;;;;;13.45;6.97;;;22.50;97.30;;;;;;6125002;23;20065;-76
2023/09/23 03:08:24;;;;;;;10.52;6.65;;;22.50;97.30;;;;;;6099050;23;20741;-76
2023/09/23 03:10:52;;;;;;;15.20;6.90;;;22.50;97.30;;;;;;6124583;23;20006;-76
2023/09/23 03:13:21;;;;;;;11.07;7.18;;;22.40;97.20;;;;;;6124801;23;20024;-76
2023/09/23 03:15:52;;;;;;;8.87;6.60;;;22.50;97.30;;;;;;6125097;23;20072;-76
2023/09/23 03:18:28;;;;;;;14.77;7.88;;;22.40;97.30;;;;;;6126106;23;20467;-76
2023/09/23 03:21:03;;;;;;;11.35;7.60;;;22.40;97.30;;;;;;6126194;23;20408;-76
2023/09/23 03:23:29;;;;;;;13.52;6.95;;;22.50;97.40;;;;;;6126011;23;20417;-75
2023/09/23 03:25:56;;;;;;;14.50;7.30;;;22.50;97.40;;;;;;6125051;23;20006;-76
2023/09/23 03:28:22;;;;;;;18.02;7.25;;;22.50;97.40;;;;;;6124981;23;20002;-76
2023/09/23 03:30:49;;;;;;;11.25;6.97;;;22.50;97.30;;;;;;6124670;23;20002;-77
2023/09/23 03:33:21;;;;;;;11.13;7.55;;;22.50;97.30;;;;;;6123672;23;20413;-76
2023/09/23 03:35:47;;;;;;;14.82;6.85;;;22.50;97.30;;;;;;6123733;23;20052;-76
2023/09/23 03:38:13;;;;;;;12.75;7.82;;;22.50;97.40;;;;;;6124070;23;20448;-76
2023/09/23 03:40:38;;;;;;;13.43;7.57;;;22.50;97.40;;;;;;6124388;23;20008;-76
2023/09/23 03:43:05;;;;;;;13.02;7.72;;;22.50;97.40;;;;;;6124920;23;20085;-76
2023/09/23 03:45:34;;;;;;;16.42;8.07;;;22.50;97.40;;;;;;6125029;23;20026;-76
2023/09/23 03:48:00;;;;;;;14.43;6.97;;;22.50;97.30;;;;;;6124502;23;20034;-76
2023/09/23 03:50:27;;;;;;;17.25;7.57;;;22.50;97.30;;;;;;6123983;23;20052;-76
2023/09/23 03:52:52;;;;;;;14.68;7.63;;;22.50;97.40;;;;;;6124403;23;20409;-76
2023/09/23 03:55:18;;;;;;;12.02;7.68;;;22.50;97.40;;;;;;6124096;23;20002;-77
2023/09/23 03:57:46;;;;;;;14.05;7.85;;;22.40;97.30;;;;;;6124753;23;20006;-77
2023/09/23 04:00:26;;;;;;;13.43;8.23;;;22.50;97.30;;;;;;6123873;23;20310;-76
2023/09/23 04:02:52;;;;;;;15.05;7.28;;;22.40;97.30;;;;;;6099116;23;20010;-75
2023/09/23 04:05:20;;;;;;;13.60;6.90;;;22.40;97.30;;;;;;6123932;23;20041;-77
2023/09/23 04:07:50;;;;;;;13.65;7.80;;;22.40;97.30;;;;;;6125216;23;20038;-76
2023/09/23 04:10:23;;;;;;;16.70;7.75;;;22.40;97.30;;;;;;6126259;23;20044;-77
2023/09/23 04:12:49;;;;;;;16.33;7.28;;;22.40;97.30;;;;;;6100906;23;20002;-76
2023/09/23 04:15:15;;;;;;;9.55;6.93;;;22.50;97.30;;;;;;6125784;23;20002;-77
2023/09/23 04:17:41;;;;;;;11.43;6.05;;;22.40;97.20;;;;;;6100589;23;20089;-77
2023/09/23 04:20:11;;;;;;;12.43;6.65;;;22.40;97.30;;;;;;6126462;23;20012;-77
2023/09/23 04:22:38;;;;;;;14.20;6.33;;;22.40;97.30;;;;;;6126426;23;20424;-77
2023/09/23 04:25:05;;;;;;;10.52;6.18;;;22.40;97.30;;;;;;6100805;23;20014;-78
2023/09/23 04:27:38;;;;;;;12.63;7.07;;;22.30;97.30;;;;;;6127199;23;20492;-77
2023/09/23 04:30:15;;;;;;;14.25;7.00;;;22.30;97.40;;;;;;6126127;23;20430;-78
2023/09/23 04:32:42;;;;;;;8.50;5.80;;;22.30;97.30;;;;;;6125898;23;20432;-78
2023/09/23 04:35:09;;;;;;;12.68;5.90;;;22.30;97.30;;;;;;6100878;23;20444;-78
2023/09/23 04:37:38;;;;;;;10.77;6.15;;;22.30;97.30;;;;;;6100555;23;20013;-78
2023/09/23 04:40:10;;;;;;;9.55;5.90;;;22.30;97.30;;;;;;6126316;23;20428;-78
2023/09/23 04:42:41;;;;;;;8.20;5.40;;;22.30;97.40;;;;;;6126171;23;20002;-78
2023/09/23 04:45:09;;;;;;;11.75;6.80;;;22.30;97.40;;;;;;6126478;23;20061;-77
2023/09/23 04:47:35;;;;;;;16.33;6.20;;;22.30;97.40;;;;;;6125753;23;20002;-78
2023/09/23 04:50:04;;;;;;;8.45;5.35;;;22.30;97.30;;;;;;6126244;23;20006;-77
2023/09/23 04:52:34;;;;;;;14.32;7.22;;;22.30;97.30;;;;;;6100276;23;20009;-77
2023/09/23 04:55:01;;;;;;;9.73;6.05;;;22.30;97.30;;;;;;6126642;23;20122;-78
2023/09/23 04:57:27;;;;;;;9.43;6.05;;;22.30;97.30;;;;;;6125018;23;20379;-77
2023/09/23 04:59:54;;;;;;;17.63;5.85;;;22.30;97.20;;;;;;6126346;23;20014;-77
2023/09/23 05:02:20;;;;;;;9.02;5.60;;;22.30;97.20;;;;;;6125521;23;20009;-78
2023/09/23 05:04:46;;;;;;;10.82;5.57;;;22.30;97.20;;;;;;6126437;23;20002;-77
2023/09/23 05:07:15;;;;;;;11.43;5.85;;;22.30;97.10;;;;;;6124939;23;20021;-77
2023/09/23 05:09:41;;;;;;;9.85;5.00;;;22.30;97.10;;;;;;6126396;23;19998;-77
2023/09/23 05:12:11;;;;;;;11.30;5.10;;;22.30;96.90;;;;;;6123672;23;20006;-77
2023/09/23 05:14:37;;;;;;;13.23;5.05;;;22.30;96.90;;;;;;6098940;23;20102;-75
2023/09/23 05:17:06;;;;;;;7.15;4.38;;;22.30;96.70;;;;;;6125914;23;20013;-76
2023/09/23 05:19:35;;;;;;;9.57;4.60;;;22.30;96.60;;;;;;6126302;23;20051;-75
2023/09/23 05:22:02;;;;;;;12.85;4.57;;;22.30;96.50;;;;;;6125447;23;20026;-75
2023/09/23 05:24:28;;;;;;;12.63;6.47;;;22.30;96.30;;;;;;6124752;23;20076;-75
2023/09/23 05:26:55;;;;;;;17.27;5.05;;;22.30;96.40;;;;;;6124093;23;20425;-74
2023/09/23 05:29:24;;;;;;;6.85;4.57;;;22.10;96.60;;;;;;6125471;23;20006;-75
2023/09/23 05:31:50;;;;;;;8.30;5.63;;;22.10;96.70;;;;;;6099459;23;20006;-75
2023/09/23 05:34:18;;;;;;;7.75;4.80;;;22.00;96.80;;;;;;6125888;23;20298;-76
2023/09/23 05:36:45;;;;;;;6.32;4.38;;;21.90;96.90;;;;;;6126145;23;20002;-76
2023/09/23 05:39:14;;;;;;;7.63;5.15;;;21.90;97.00;;;;;;6126314;23;20006;-77
2023/09/23 05:41:40;;;;;;;6.78;4.72;;;21.90;97.10;;;;;;6125716;23;20472;-76
2023/09/23 05:44:07;;;;;;;11.60;5.13;;;21.90;97.20;;;;;;6125485;23;20061;-76
2023/09/23 05:46:35;;;;;;;5.47;4.65;;;21.80;97.20;;;;;;6125419;23;20513;-76
2023/09/23 05:49:02;;;;;;;6.40;4.80;;;21.90;97.20;;;;;;6098466;23;20002;-76
2023/09/23 05:51:38;;;;;;;6.93;5.43;;;21.90;97.20;;;;;;6098335;23;20006;-76
2023/09/23 05:54:04;;;;;;;5.80;5.00;;;21.90;97.20;;;;;;6124526;23;20005;-75
2023/09/23 05:56:30;;;;;;;8.23;6.13;;;21.90;97.20;;;;;;6125636;23;20064;-76
2023/09/23 05:58:55;;;;;;;10.60;6.50;;;21.90;97.30;;;;;;6123757;23;20002;-75
2023/09/23 06:01:21;;;;;;;12.20;5.70;;;21.90;97.30;;;;;;6124824;23;20014;-75
2023/09/23 06:03:49;;;;;;;9.60;5.75;;;22.00;97.30;;;;;;6125024;23;20033;-75
2023/09/23 06:06:15;;;;;;;9.70;6.30;;;22.00;97.30;;;;;;6125068;23;20017;-76
2023/09/23 06:08:41;;;;;;;8.40;5.70;;;22.00;97.30;;;;;;6099952;23;20014;-78
2023/09/23 06:11:09;;;;;;;7.93;6.57;;;22.00;97.30;;;;;;6099930;23;20102;-82
2023/09/23 06:13:35;;;;;;;8.95;6.18;;;22.10;97.30;;;;;;6126619;23;19998;-82
2023/09/23 06:16:05;;;;;;;8.02;6.20;;;22.10;97.30;;;;;;6127344;23;20002;-84
2023/09/23 06:18:31;;;;;;;10.45;6.45;;;22.10;97.30;;;;;;6126355;23;20013;-83
2023/09/23 06:21:01;;;;;;;12.45;6.38;;;22.10;97.30;;;;;;6125723;23;20364;-79
2023/09/23 06:23:27;;;;;;;8.48;6.47;;;22.10;97.20;;;;;;6126242;23;20002;-78
2023/09/23 06:26:05;;;;;;;9.32;6.60;;;22.20;97.10;;;;;;6126580;23;20017;-78
2023/09/23 06:28:33;;;;;;;7.88;6.25;;;22.20;97.00;;;;;;6126896;23;20002;-83
2023/09/23 06:30:59;;;;;;;7.38;5.95;;;22.20;97.00;;;;;;6100559;23;20075;-83
2023/09/23 06:33:25;;;;;;;7.45;6.05;;;22.30;96.90;;;;;;6126550;23;20006;-83
2023/09/23 06:35:50;;;;;;;9.27;6.43;;;22.30;96.80;;;;;;6126912;23;20061;-83
2023/09/23 06:38:16;;;;;;;8.63;6.30;;;22.30;96.90;;;;;;6126464;23;20421;-83
2023/09/23 06:40:42;;;;;;;7.80;5.93;;;22.30;96.90;;;;;;6100937;23;20088;-83
2023/09/23 06:43:08;;;;;;;7.72;6.18;;;22.20;96.80;;;;;;6126514;23;20038;-83
2023/09/23 06:45:35;;;;;;;10.90;6.55;;;22.30;96.90;;;;;;6126541;23;20002;-83
2023/09/23 06:48:02;;;;;;;13.23;6.38;;;22.30;96.90;;;;;;6126459;23;20005;-83
2023/09/23 06:50:28;;;;;;;9.77;7.00;;;22.30;96.90;;;;;;6126552;23;20073;-83
2023/09/23 06:52:54;;;;;;;10.90;7.15;;;22.30;96.90;;;;;;6126371;23;20308;-83
2023/09/23 06:55:20;;;;;;;7.68;6.15;;;22.30;96.70;;;;;;6126761;23;20333;-83
2023/09/23 06:57:46;;;;;;;8.85;6.30;;;22.30;96.60;;;;;;6126550;23;20009;-83
2023/09/23 07:00:12;;;;;;;11.35;7.07;;;22.30;96.50;;;;;;6100619;23;20064;-84
2023/09/23 07:02:38;;;;;;;16.75;7.47;;;22.30;96.50;;;;;;6126072;23;20033;-85
2023/09/23 07:05:04;;;;;;;10.25;6.45;;;22.30;96.50;;;;;;6126256;23;20030;-85
2023/09/23 07:07:29;;;;;;;8.85;7.13;;;22.30;96.50;;;;;;6100482;23;20010;-84
2023/09/23 07:09:55;;;;;;;12.43;7.68;;;22.20;96.60;;;;;;6126512;23;20061;-84
2023/09/23 07:12:21;;;;;;;11.15;7.68;;;22.20;96.60;;;;;;6126661;23;20029;-84
2023/09/23 07:14:47;;;;;;;12.63;7.10;;;22.20;96.70;;;;;;6126763;23;19998;-84
2023/09/23 07:17:13;;;;;;;8.95;7.03;;;22.20;96.80;;;;;;6126957;23;20002;-78
2023/09/23 07:19:38;;;;;;;11.68;8.73;;;22.20;96.90;;;;;;6126292;23;20006;-77
2023/09/23 07:22:04;;;;;;;11.68;8.07;;;22.20;97.00;;;;;;6124624;23;20013;-77
2023/09/23 07:24:33;;;;;;;12.73;8.48;;;22.20;97.10;;;;;;6126219;23;20065;-77
2023/09/23 07:26:59;;;;;;;10.32;8.23;;;22.20;97.30;;;;;;6126222;23;20124;-78
2023/09/23 07:29:25;;;;;;;11.20;8.15;;;22.20;97.30;;;;;;6126357;23;20433;-77
2023/09/23 07:31:52;;;;;;;14.85;9.20;;;22.10;97.30;;;;;;6125738;23;20405;-78
2023/09/23 07:34:18;;;;;;;14.98;9.02;;;22.20;97.40;;;;;;6126426;23;20369;-77
2023/09/23 07:36:44;;;;;;;10.43;7.63;;;22.20;97.40;;;;;;6126541;23;20010;-77
2023/09/23 07:39:13;;;;;;;10.30;7.25;;;22.20;97.40;;;;;;6126532;23;20012;-77
2023/09/23 07:41:39;;;;;;;11.27;7.95;;;22.20;97.40;;;;;;6100233;23;20044;-77
2023/09/23 07:44:05;;;;;;;9.55;7.03;;;22.30;97.40;;;;;;6127648;23;20002;-78
2023/09/23 07:46:31;;;;;;;11.88;7.97;;;22.30;97.40;;;;;;6128204;23;20033;-78
2023/09/23 07:48:57;;;;;;;11.85;7.90;;;22.40;97.40;;;;;;6127049;23;20002;-77
2023/09/23 07:51:22;;;;;;;10.00;7.88;;;22.50;97.30;;;;;;6128672;23;19998;-77
2023/09/23 07:53:50;;;;;;;11.23;8.07;;;22.60;97.20;;;;;;6127784;23;20447;-78
2023/09/23 07:56:16;;;;;;;9.52;7.40;;;22.70;97.00;;;;;;6102319;23;20437;-78
2023/09/23 07:58:42;;;;;;;13.45;8.50;;;22.80;97.00;;;;;;6102394;23;20006;-78
2023/09/23 08:01:08;;;;;;;11.10;7.93;;;22.80;97.00;;;;;;6126817;23;20009;-77
2023/09/23 08:03:34;;;;;;;13.40;8.27;;;22.90;97.00;;;;;;6127367;23;20017;-77
2023/09/23 08:05:59;;;;;;;16.10;10.43;;;23.10;97.00;;;;;;6128096;23;20009;-77
2023/09/23 08:08:25;;;;;;;11.70;8.50;;;23.20;96.30;;;;;;6126986;23;20009;-78
2023/09/23 08:10:52;;;;;;;12.75;8.30;;;23.10;96.30;;;;;;6128203;23;20009;-78
2023/09/23 08:13:19;;;;;;;11.07;8.25;;;23.10;96.30;;;;;;6127344;23;20126;-78
2023/09/23 08:15:45;;;;;;;11.82;7.47;;;23.10;96.40;;;;;;6127884;23;20002;-78
2023/09/23 08:18:12;;;;;;;12.68;7.90;;;23.10;96.50;;;;;;6128003;23;19998;-77
2023/09/23 08:20:39;;;;;;;16.27;7.57;;;23.10;96.40;;;;;;6128207;23;20492;-78
2023/09/23 08:23:05;;;;;;;14.48;8.32;;;23.30;96.30;;;;;;6127702;23;20073;-78
2023/09/23 08:25:32;;;;;;;11.65;7.03;;;23.30;96.10;;;;;;6127498;23;20073;-77
2023/09/23 08:27:58;;;;;;;9.68;7.03;;;23.30;96.20;;;;;;6127692;23;20073;-78
2023/09/23 08:30:23;;;;;;;11.00;6.10;;;23.40;96.10;;;;;;6126235;23;20421;-80
2023/09/23 08:32:49;;;;;;;9.65;6.13;;;23.40;96.10;;;;;;6124103;23;19997;-80
2023/09/23 08:35:15;;;;;;;11.02;5.82;;;23.40;96.10;;;;;;6126112;23;20002;-79
2023/09/23 08:37:41;;;;;;;10.18;5.80;;;23.60;96.10;;;;;;6126417;23;20023;-79
2023/09/23 08:40:10;;;;;;;10.88;6.25;;;23.70;96.10;;;;;;6101331;23;20010;-79
2023/09/23 08:42:37;;;;;;;10.35;5.28;;;23.80;95.70;;;;;;6127743;23;20060;-80
2023/09/23 08:45:08;;;;;;;6.95;5.40;;;23.90;95.00;;;;;;6127201;23;20001;-78
2023/09/23 08:47:38;;;;;;;10.52;5.20;;;23.90;94.90;;;;;;6100286;23;20436;-79
2023/09/23 08:50:06;;;;;;;8.55;4.68;;;24.00;94.90;;;;;;6125512;23;20393;-79
2023/09/23 08:52:33;;;;;;;11.27;3.92;;;24.10;95.00;;;;;;6099072;23;20002;-78
2023/09/23 08:55:01;;;;;;;7.65;4.00;;;24.20;95.00;;;;;;6125815;23;19998;-78
2023/09/23 08:57:28;;;;;;;6.75;4.38;;;24.30;94.70;;;;;;6125416;23;20451;-78
2023/09/23 08:59:54;;;;;;;5.82;3.75;;;24.40;93.80;;;;;;6125729;23;20413;-78
2023/09/23 09:02:25;;;;;;;5.40;4.20;;;24.50;94.00;;;;;;6124966;23;20049;-80
2023/09/23 09:04:55;;;;;;;9.30;4.45;;;24.70;93.60;;;;;;6125090;23;20417;-80
2023/09/23 09:07:37;;;;;;;4.45;3.45;;;24.80;93.40;;;;;;6124987;23;20014;-79
2023/09/23 09:10:04;;;;;;;8.73;4.38;;;24.90;93.30;;;;;;6126396;23;20009;-80
2023/09/23 09:12:34;;;;;;;10.55;5.38;;;25.00;93.30;;;;;;6126383;23;19998;-80
2023/09/23 09:15:00;;;;;;;10.25;4.28;;;25.10;91.30;;;;;;6126313;23;20008;-81
2023/09/23 09:17:26;;;;;;;7.57;3.17;;;25.00;91.70;;;;;;6125614;23;20433;-81
2023/09/23 09:19:52;;;;;;;5.63;3.47;;;25.10;92.20;;;;;;6126265;23;20077;-80
2023/09/23 09:22:21;;;;;;;4.38;2.60;;;25.30;92.30;;;;;;6099194;23;20006;-81
2023/09/23 09:24:47;;;;;;;5.70;2.90;;;25.40;92.20;;;;;;6100522;23;20077;-80
2023/09/23 09:27:14;;;;;;;4.78;3.05;;;25.60;91.70;;;;;;6124790;23;20425;-80
2023/09/23 09:29:43;;;;;;;7.78;3.00;;;25.70;91.20;;;;;;6100272;23;20006;-78
2023/09/23 09:32:10;;;;;;;5.57;2.95;;;25.80;90.80;;;;;;6100311;23;20056;-84
2023/09/23 09:34:46;;;;;;;10.23;3.53;;;25.80;89.80;;;;;;6127002;23;20013;-80
2023/09/23 09:37:17;;;;;;;5.88;3.13;;;25.60;84.40;;;;;;6125512;23;20013;-78
2023/09/23 09:40:11;;;;;;;6.55;2.40;;;25.60;86.60;;;;;;6125943;23;20006;-77
2023/09/23 09:42:42;;;;;;;5.03;1.98;;;25.70;87.00;;;;;;6125876;23;20010;-82
2023/09/23 09:45:10;;;;;;;11.88;3.83;;;25.90;87.90;;;;;;6100172;23;20006;-83
2023/09/23 09:47:39;;;;;;;4.55;1.40;;;26.10;86.10;;;;;;6126388;23;20002;-78
2023/09/23 09:50:06;;;;;;;4.17;1.80;;;26.30;88.00;;;;;;6125194;23;19998;-78
2023/09/23 09:52:34;;;;;;;3.10;1.60;;;26.50;87.00;;;;;;6126763;23;20226;-78
2023/09/23 09:55:02;;;;;;;7.10;2.58;;;26.70;83.00;;;;;;6125857;23;20002;-78
2023/09/23 09:57:29;;;;;;;7.97;1.90;;;26.40;77.10;;;;;;6125487;23;20100;-78
2023/09/23 10:00:20;;;;;;;9.73;2.92;;;26.40;81.50;;;;;;6125611;23;20037;-78
2023/09/23 10:02:47;;;;;;;7.18;2.47;;;26.50;80.10;;;;;;6126072;23;20006;-78
2023/09/23 10:05:17;;;;;;;7.95;2.10;;;26.60;79.80;;;;;;6099495;23;20009;-78
2023/09/23 10:08:15;;;;;;;2.72;1.63;;;26.70;81.10;;;;;;6099489;23;20088;-78
2023/09/23 10:10:47;;;;;;;6.97;2.00;;;26.90;80.40;;;;;;6125288;23;20431;-80
2023/09/23 10:13:13;;;;;;;3.75;1.65;;;26.90;76.40;;;;;;6126802;23;19998;-78
2023/09/23 10:15:40;;;;;;;3.35;1.45;;;27.00;79.10;;;;;;6126109;23;19998;-78
2023/09/23 10:18:14;;;;;;;4.97;1.52;;;27.20;79.50;;;;;;6125526;23;20009;-78
2023/09/23 10:20:41;;;;;;;3.83;1.00;;;27.40;77.00;;;;;;6125671;23;20010;-78
2023/09/23 10:23:08;;;;;;;2.60;1.48;;;27.50;78.20;;;;;;6126106;23;20012;-78
2023/09/23 10:25:42;;;;;;;1.85;0.77;;;27.70;76.40;;;;;;6124747;23;20021;-79
2023/09/23 10:28:24;;;;;;;3.00;1.10;;;27.90;77.30;;;;;;6124655;23;20029;-78
2023/09/23 10:31:04;;;;;;;4.15;1.25;;;28.10;76.50;;;;;;6126300;23;20025;-78
2023/09/23 10:33:34;;;;;;;4.10;1.75;;;28.40;76.60;;;;;;6125942;23;20058;-78
2023/09/23 10:36:03;;;;;;;4.43;1.70;;;28.60;76.80;;;;;;6125745;23;20029;-78
2023/09/23 10:38:31;;;;;;;3.72;1.30;;;28.70;76.00;;;;;;6100206;23;20013;-78
2023/09/23 10:40:57;;;;;;;4.70;1.50;;;28.70;75.30;;;;;;6126464;23;20005;-78
2023/09/23 10:43:23;;;;;;;5.55;1.80;;;28.80;74.60;;;;;;6126118;23;20002;-78
2023/09/23 10:45:53;;;;;;;3.60;1.50;;;28.90;73.70;;;;;;6099916;23;20005;-78
2023/09/23 10:48:19;;;;;;;1.83;1.17;;;28.90;73.90;;;;;;6125930;23;19998;-78
2023/09/23 10:50:45;;;;;;;2.45;1.25;;;28.80;73.70;;;;;;6126063;23;20069;-78
2023/09/23 10:53:14;;;;;;;5.65;1.48;;;28.60;73.40;;;;;;6125717;23;20024;-78
2023/09/23 10:55:40;;;;;;;2.70;1.30;;;28.50;73.20;;;;;;6125260;23;19998;-78
2023/09/23 10:58:10;;;;;;;6.93;1.42;;;28.40;73.40;;;;;;6124893;23;20409;-78
2023/09/23 11:00:40;;;;;;;4.90;1.57;;;28.40;71.60;;;;;;6099734;23;20014;-78
2023/09/23 11:03:10;;;;;;;3.65;1.60;;;28.50;72.60;;;;;;6125953;23;20424;-78
2023/09/23 11:05:37;;;;;;;2.92;1.30;;;28.60;73.00;;;;;;6125704;23;20520;-78
2023/09/23 11:08:10;;;;;;;2.92;1.25;;;28.50;72.10;;;;;;6124691;23;20060;-78
2023/09/23 11:10:38;;;;;;;3.30;1.00;;;28.60;71.10;;;;;;6125464;23;20506;-79
2023/09/23 11:13:05;;;;;;;3.95;1.27;;;28.80;71.30;;;;;;6099625;23;20005;-78
2023/09/23 11:15:31;;;;;;;1.23;0.90;;;29.00;70.80;;;;;;6125503;23;20092;-77
2023/09/23 11:17:57;;;;;;;4.85;1.50;;;29.30;70.90;;;;;;6123935;23;20056;-80
2023/09/23 11:20:31;;;;;;;2.03;1.02;;;29.60;68.90;;;;;;6124328;23;20006;-80
2023/09/23 11:23:05;;;;;;;6.95;1.73;;;29.80;68.90;;;;;;6123907;23;20333;-81
2023/09/23 11:25:41;;;;;;;5.10;1.40;;;30.10;70.60;;;;;;6125281;23;20005;-82
2023/09/23 11:28:07;;;;;;;2.65;1.13;;;30.30;70.60;;;;;;6186627;23;20020;-85
2023/09/23 11:30:33;;;;;;;4.32;1.10;;;30.50;70.80;;;;;;6214440;23;20009;-85
2023/09/23 11:32:59;;;;;;;5.85;1.48;;;30.80;69.40;;;;;;6215044;23;20441;-84
2023/09/23 11:35:24;;;;;;;3.42;1.60;;;31.10;69.50;;;;;;6213771;23;20005;-84
2023/09/23 11:37:52;;;;;;;3.20;1.45;;;31.30;68.70;;;;;;6214174;23;20005;-88
2023/09/23 11:40:19;;;;;;;6.07;1.25;;;31.50;66.60;;;;;;6213740;23;20017;-87
2023/09/23 11:42:45;;;;;;;2.22;1.08;;;31.60;66.50;;;;;;6215486;23;20028;-85
2023/09/23 11:45:12;;;;;;;1.90;1.23;;;31.70;65.80;;;;;;6213527;23;20001;-89
2023/09/23 11:47:38;;;;;;;3.22;1.38;;;31.80;65.20;;;;;;6214715;23;20008;-89
2023/09/23 11:50:05;;;;;;;2.22;0.90;;;32.00;61.80;;;;;;6214391;23;20039;-90
2023/09/23 11:52:32;;;;;;;3.22;1.00;;;32.20;62.60;;;;;;6214378;23;20011;-89
2023/09/23 11:54:58;;;;;;;3.38;1.05;;;32.40;63.30;;;;;;6215530;23;20422;-89
2023/09/23 11:57:25;;;;;;;7.15;1.30;;;32.50;61.80;;;;;;6214355;23;20000;-87
2023/09/23 11:59:51;;;;;;;4.30;0.90;;;32.60;60.30;;;;;;6215878;23;20004;-91
2023/09/23 12:02:19;;;;;;;2.40;0.90;;;32.80;60.20;;;;;;6215297;23;20011;-93
2023/09/23 12:04:46;;;;;;;2.70;1.02;;;33.00;60.00;;;;;;6213481;23;20016;-94
2023/09/23 12:07:14;;;;;;;1.40;0.88;;;33.10;59.30;;;;;;6213288;23;20016;-91
2023/09/23 12:09:40;;;;;;;3.38;1.30;;;33.30;58.90;;;;;;6215377;23;20070;-89
2023/09/23 12:12:06;;;;;;;1.48;0.80;;;33.40;58.10;;;;;;6215263;23;20374;-91
2023/09/23 12:14:32;;;;;;;4.07;1.30;;;33.40;58.00;;;;;;6215666;23;20005;-93
2023/09/23 12:16:58;;;;;;;2.65;1.20;;;33.50;55.30;;;;;;6213079;23;20412;-90
2023/09/23 12:19:24;;;;;;;4.65;1.17;;;33.60;57.10;;;;;;6214595;23;20005;-91
2023/09/23 12:21:49;;;;;;;2.65;1.10;;;33.60;56.50;;;;;;6215161;23;20035;-90
2023/09/23 12:24:15;;;;;;;3.25;0.98;;;33.60;56.70;;;;;;6215127;23;20377;-92
2023/09/23 12:26:41;;;;;;;2.00;0.88;;;33.70;56.10;;;;;;6213684;23;20371;-89
2023/09/23 12:29:07;;;;;;;3.35;1.00;;;33.70;55.60;;;;;;6214701;23;20012;-89
2023/09/23 12:31:33;;;;;;;2.72;1.00;;;33.70;56.10;;;;;;6216095;23;20001;-88
2023/09/23 12:33:59;;;;;;;3.58;1.30;;;33.70;55.90;;;;;;6216316;23;20009;-88
2023/09/23 12:36:24;;;;;;;2.80;1.15;;;33.60;55.00;;;;;;6215080;23;20096;-86
2023/09/23 12:38:50;;;;;;;4.68;1.27;;;33.50;53.70;;;;;;6217049;23;20001;-87
2023/09/23 12:41:16;;;;;;;3.50;1.20;;;33.30;56.10;;;;;;6215128;23;20427;-87
2023/09/23 12:43:42;;;;;;;4.72;1.00;;;33.30;56.50;;;;;;6216668;23;20027;-86
2023/09/23 12:46:08;;;;;;;3.33;1.05;;;33.30;57.10;;;;;;6215301;23;20438;-86